createdAt,value
2019-05-18T00:00:48.767Z,76.73
2019-05-18T00:01:54.681Z,76.75
2019-05-18T00:02:59.738Z,76.82
2019-05-18T00:04:05.714Z,76.82
2019-05-18T00:05:11.001Z,76.83
2019-05-18T00:06:16.713Z,76.82
2019-05-18T00:07:22.056Z,76.82
2019-05-18T00:08:28.137Z,76.86
2019-05-18T00:09:33.163Z,76.87
2019-05-18T00:10:38.736Z,76.93
2019-05-18T00:11:43.690Z,77.01
2019-05-18T00:12:49.262Z,77.06
2019-05-18T00:13:54.322Z,77.05
2019-05-18T00:15:00.093Z,77.05
2019-05-18T00:16:05.239Z,77.05
2019-05-18T00:17:24.438Z,77.00
2019-05-18T00:18:17.836Z,76.99
2019-05-18T00:19:23.726Z,76.98
2019-05-18T00:20:28.728Z,77.04
2019-05-18T00:21:34.679Z,77.08
2019-05-18T00:22:39.646Z,77.14
2019-05-18T00:23:45.389Z,77.21
2019-05-18T00:24:50.498Z,77.22
2019-05-18T00:25:55.950Z,77.21
2019-05-18T00:27:00.962Z,77.19
2019-05-18T00:28:06.831Z,77.18
2019-05-18T00:29:12.246Z,77.17
2019-05-18T00:30:18.110Z,77.18
2019-05-18T00:31:23.735Z,77.18
2019-05-18T00:32:29.540Z,77.16
2019-05-18T00:33:34.660Z,77.17
2019-05-18T00:34:40.782Z,77.16
2019-05-18T00:35:45.790Z,77.16
2019-05-18T00:36:51.673Z,77.14
2019-05-18T00:37:56.601Z,77.14
2019-05-18T00:39:02.495Z,77.18
2019-05-18T00:40:09.119Z,77.20
2019-05-18T00:41:14.669Z,77.30
2019-05-18T00:42:22.567Z,77.38
2019-05-18T00:43:28.250Z,77.45
2019-05-18T00:44:33.287Z,77.49
2019-05-18T00:45:39.566Z,77.55
2019-05-18T00:46:44.552Z,77.59
2019-05-18T00:47:50.334Z,77.58
2019-05-18T00:48:55.295Z,77.57
2019-05-18T00:50:01.406Z,77.53
2019-05-18T00:51:06.370Z,77.46
2019-05-18T00:52:12.107Z,77.41
2019-05-18T00:53:17.124Z,77.28
2019-05-18T00:54:22.721Z,77.19
2019-05-18T00:55:28.089Z,77.09
2019-05-18T00:56:33.729Z,76.99
2019-05-18T00:57:38.675Z,76.85
2019-05-18T00:58:44.236Z,76.75
2019-05-18T00:59:49.376Z,76.67
2019-05-18T01:00:54.864Z,76.51
2019-05-18T01:01:59.896Z,76.32
2019-05-18T01:03:05.567Z,76.22
2019-05-18T01:04:10.523Z,76.12
2019-05-18T01:05:16.197Z,76.09
2019-05-18T01:06:21.568Z,76.06
2019-05-18T01:07:27.889Z,76.04
2019-05-18T01:08:32.854Z,76.05
2019-05-18T01:09:38.694Z,76.05
2019-05-18T01:10:44.421Z,76.02
2019-05-18T01:11:50.032Z,75.98
2019-05-18T01:12:55.356Z,75.97
2019-05-18T01:14:01.328Z,76.00
2019-05-18T01:15:07.127Z,75.97
2019-05-18T01:16:12.661Z,75.96
2019-05-18T01:17:17.638Z,75.95
2019-05-18T01:18:23.293Z,75.92
2019-05-18T01:19:28.664Z,75.85
2019-05-18T01:20:34.269Z,75.84
2019-05-18T01:21:39.712Z,75.80
2019-05-18T01:22:45.519Z,75.69
2019-05-18T01:23:50.894Z,75.48
2019-05-18T01:24:56.524Z,75.31
2019-05-18T01:26:01.537Z,75.13
2019-05-18T01:27:07.178Z,74.92
2019-05-18T01:28:12.481Z,74.69
2019-05-18T01:29:20.877Z,74.48
2019-05-18T01:30:26.947Z,74.33
2019-05-18T01:31:32.709Z,74.22
2019-05-18T01:32:37.776Z,74.16
2019-05-18T01:33:43.423Z,74.10
2019-05-18T01:34:48.850Z,74.06
2019-05-18T01:35:54.355Z,73.98
2019-05-18T01:36:59.696Z,73.93
2019-05-18T01:38:06.342Z,73.92
2019-05-18T01:39:11.404Z,73.87
2019-05-18T01:40:17.291Z,73.83
2019-05-18T01:41:22.403Z,73.79
2019-05-18T01:42:27.937Z,73.75
2019-05-18T01:43:32.935Z,73.70
2019-05-18T01:44:38.851Z,73.58
2019-05-18T01:45:43.999Z,73.51
2019-05-18T01:46:49.887Z,73.41
2019-05-18T01:47:54.898Z,73.35
2019-05-18T01:49:00.805Z,73.32
2019-05-18T01:50:06.416Z,73.32
2019-05-18T01:51:12.280Z,73.33
2019-05-18T01:52:17.300Z,73.36
2019-05-18T01:53:23.135Z,73.39
2019-05-18T01:54:28.074Z,73.43
2019-05-18T01:55:33.588Z,73.45
2019-05-18T01:56:38.534Z,73.40
2019-05-18T01:57:44.380Z,73.43
2019-05-18T01:58:49.401Z,73.44
2019-05-18T01:59:54.920Z,73.44
2019-05-18T02:00:59.939Z,73.42
2019-05-18T02:02:07.704Z,73.41
2019-05-18T02:03:12.794Z,73.35
2019-05-18T02:04:18.743Z,73.32
2019-05-18T02:05:23.885Z,73.36
2019-05-18T02:06:29.378Z,73.34
2019-05-18T02:07:34.314Z,73.30
2019-05-18T02:08:40.160Z,73.27
2019-05-18T02:09:45.100Z,73.23
2019-05-18T02:10:50.616Z,73.19
2019-05-18T02:11:55.878Z,73.17
2019-05-18T02:13:01.539Z,73.18
2019-05-18T02:14:06.918Z,73.16
2019-05-18T02:15:12.885Z,73.15
2019-05-18T02:16:17.916Z,73.13
2019-05-18T02:17:23.691Z,73.09
2019-05-18T02:18:29.481Z,73.08
2019-05-18T02:19:35.043Z,73.10
2019-05-18T02:20:40.285Z,73.13
2019-05-18T02:21:46.191Z,73.14
2019-05-18T02:22:51.173Z,73.17
2019-05-18T02:23:57.149Z,73.18
2019-05-18T02:25:02.171Z,73.25
2019-05-18T02:26:07.948Z,73.28
2019-05-18T02:27:13.344Z,73.33
2019-05-18T02:28:18.917Z,73.36
2019-05-18T02:29:24.197Z,73.39
2019-05-18T02:30:29.897Z,73.37
2019-05-18T02:31:35.063Z,73.29
2019-05-18T02:32:40.633Z,73.20
2019-05-18T02:33:45.967Z,73.14
2019-05-18T02:34:51.479Z,73.11
2019-05-18T02:35:56.440Z,73.08
2019-05-18T02:37:02.405Z,73.08
2019-05-18T02:38:17.025Z,73.05
2019-05-18T02:39:22.598Z,73.01
2019-05-18T02:40:28.090Z,72.96
2019-05-18T02:41:33.585Z,72.90
2019-05-18T02:42:38.585Z,72.89
2019-05-18T02:43:44.155Z,72.87
2019-05-18T02:44:49.241Z,72.85
2019-05-18T02:45:54.823Z,72.88
2019-05-18T02:46:59.961Z,72.91
2019-05-18T02:48:05.559Z,72.95
2019-05-18T02:49:10.974Z,72.98
2019-05-18T02:50:16.807Z,72.99
2019-05-18T02:51:22.119Z,73.04
2019-05-18T02:52:28.270Z,73.07
2019-05-18T02:53:33.556Z,73.07
2019-05-18T02:54:39.047Z,73.07
2019-05-18T02:55:44.362Z,73.10
2019-05-18T02:56:50.033Z,73.14
2019-05-18T02:57:55.027Z,73.14
2019-05-18T02:59:00.598Z,73.17
2019-05-18T03:00:07.050Z,73.14
2019-05-18T03:01:12.876Z,73.11
2019-05-18T03:02:18.209Z,73.08
2019-05-18T03:03:23.767Z,73.04
2019-05-18T03:04:28.763Z,73.02
2019-05-18T03:05:34.391Z,73.05
2019-05-18T03:06:39.417Z,73.07
2019-05-18T03:07:45.078Z,73.10
2019-05-18T03:08:50.182Z,73.14
2019-05-18T03:09:55.856Z,73.12
2019-05-18T03:11:01.163Z,73.10
2019-05-18T03:12:06.776Z,73.07
2019-05-18T03:13:11.864Z,73.09
2019-05-18T03:14:17.752Z,73.09
2019-05-18T03:15:22.837Z,73.15
2019-05-18T03:16:28.757Z,73.23
2019-05-18T03:17:33.743Z,73.25
2019-05-18T03:18:39.343Z,73.28
2019-05-18T03:19:44.424Z,73.33
2019-05-18T03:20:50.448Z,73.41
2019-05-18T03:22:00.922Z,73.45
2019-05-18T03:23:05.061Z,73.51
2019-05-18T03:24:10.145Z,73.54
2019-05-18T03:25:15.913Z,73.59
2019-05-18T03:26:20.846Z,73.63
2019-05-18T03:27:26.686Z,73.69
2019-05-18T03:28:31.624Z,73.74
2019-05-18T03:29:37.140Z,73.79
2019-05-18T03:30:42.133Z,73.84
2019-05-18T03:31:47.758Z,73.87
2019-05-18T03:32:52.798Z,73.87
2019-05-18T03:33:58.706Z,73.85
2019-05-18T03:35:04.106Z,73.77
2019-05-18T03:36:10.095Z,73.73
2019-05-18T03:37:15.702Z,73.69
2019-05-18T03:38:21.236Z,73.65
2019-05-18T03:39:26.297Z,73.67
2019-05-18T03:40:31.800Z,73.67
2019-05-18T03:41:36.864Z,73.68
2019-05-18T03:42:42.374Z,73.75
2019-05-18T03:43:47.597Z,73.79
2019-05-18T03:44:53.526Z,73.79
2019-05-18T03:45:58.455Z,73.85
2019-05-18T03:47:04.014Z,73.92
2019-05-18T03:48:09.265Z,73.99
2019-05-18T03:49:26.119Z,74.03
2019-05-18T03:50:21.456Z,74.12
2019-05-18T03:51:27.297Z,74.19
2019-05-18T03:52:32.559Z,74.26
2019-05-18T03:53:38.709Z,74.32
2019-05-18T03:54:45.589Z,74.40
2019-05-18T03:55:51.240Z,74.46
2019-05-18T03:56:56.176Z,74.50
2019-05-18T03:58:02.441Z,74.50
2019-05-18T03:59:07.884Z,74.49
2019-05-18T04:00:14.025Z,74.48
2019-05-18T04:01:19.279Z,74.48
2019-05-18T04:02:25.151Z,74.45
2019-05-18T04:03:30.086Z,74.45
2019-05-18T04:04:35.587Z,74.45
2019-05-18T04:05:42.305Z,74.46
2019-05-18T04:06:47.882Z,74.46
2019-05-18T04:07:52.917Z,74.46
2019-05-18T04:08:59.059Z,74.52
2019-05-18T04:10:04.476Z,74.55
2019-05-18T04:11:10.042Z,74.56
2019-05-18T04:12:15.415Z,74.58
2019-05-18T04:13:20.991Z,74.57
2019-05-18T04:14:26.185Z,74.55
2019-05-18T04:15:31.695Z,74.50
2019-05-18T04:16:36.716Z,74.44
2019-05-18T04:17:42.234Z,74.39
2019-05-18T04:18:47.181Z,74.34
2019-05-18T04:19:52.724Z,74.28
2019-05-18T04:20:59.505Z,74.15
2019-05-18T04:22:05.407Z,74.06
2019-05-18T04:23:10.460Z,73.94
2019-05-18T04:24:16.306Z,73.80
2019-05-18T04:25:21.576Z,73.68
2019-05-18T04:26:27.378Z,73.56
2019-05-18T04:27:32.667Z,73.44
2019-05-18T04:28:38.266Z,73.35
2019-05-18T04:29:43.568Z,73.23
2019-05-18T04:30:49.065Z,73.12
2019-05-18T04:31:54.446Z,73.00
2019-05-18T04:33:00.342Z,72.96
2019-05-18T04:34:05.380Z,72.86
2019-05-18T04:35:11.556Z,72.77
2019-05-18T04:36:16.504Z,72.73
2019-05-18T04:37:22.345Z,72.69
2019-05-18T04:38:27.297Z,72.63
2019-05-18T04:39:32.890Z,72.55
2019-05-18T04:40:37.842Z,72.48
2019-05-18T04:41:46.510Z,72.40
2019-05-18T04:42:51.806Z,72.29
2019-05-18T04:43:57.588Z,72.22
2019-05-18T04:45:02.990Z,72.17
2019-05-18T04:46:08.659Z,72.13
2019-05-18T04:47:13.862Z,72.10
2019-05-18T04:48:19.358Z,72.03
2019-05-18T04:49:24.371Z,71.97
2019-05-18T04:50:30.025Z,71.95
2019-05-18T04:51:34.954Z,71.94
2019-05-18T04:52:40.812Z,71.95
2019-05-18T04:53:45.763Z,71.91
2019-05-18T04:54:51.427Z,71.88
2019-05-18T04:55:57.054Z,71.79
2019-05-18T04:57:02.561Z,71.75
2019-05-18T04:58:07.575Z,71.70
2019-05-18T04:59:13.057Z,71.70
2019-05-18T05:00:18.258Z,71.71
2019-05-18T05:01:23.790Z,71.74
2019-05-18T05:02:28.966Z,71.73
2019-05-18T05:03:34.825Z,71.69
2019-05-18T05:04:40.172Z,71.70
2019-05-18T05:05:45.969Z,71.69
2019-05-18T05:06:52.175Z,71.68
2019-05-18T05:07:58.281Z,71.65
2019-05-18T05:09:04.762Z,71.62
2019-05-18T05:10:10.383Z,71.59
2019-05-18T05:11:15.382Z,71.59
2019-05-18T05:12:20.953Z,71.58
2019-05-18T05:13:25.907Z,71.58
2019-05-18T05:14:31.403Z,71.58
2019-05-18T05:15:36.396Z,71.57
2019-05-18T05:16:42.288Z,71.56
2019-05-18T05:17:47.528Z,71.58
2019-05-18T05:18:53.327Z,71.62
2019-05-18T05:19:58.616Z,71.66
2019-05-18T05:21:04.171Z,71.70
2019-05-18T05:22:09.423Z,71.71
2019-05-18T05:23:14.963Z,71.72
2019-05-18T05:24:19.918Z,71.71
2019-05-18T05:25:25.748Z,71.72
2019-05-18T05:26:30.728Z,71.74
2019-05-18T05:27:36.725Z,71.77
2019-05-18T05:28:41.665Z,71.79
2019-05-18T05:29:47.445Z,71.81
2019-05-18T05:30:52.448Z,71.83
2019-05-18T05:31:57.953Z,71.82
2019-05-18T05:33:02.946Z,71.81
2019-05-18T05:34:08.522Z,71.81
2019-05-18T05:35:13.806Z,71.83
2019-05-18T05:36:19.300Z,71.81
2019-05-18T05:37:24.602Z,71.82
2019-05-18T05:38:30.626Z,71.81
2019-05-18T05:39:36.002Z,71.79
2019-05-18T05:40:42.076Z,71.77
2019-05-18T05:41:47.033Z,71.79
2019-05-18T05:42:52.623Z,71.80
2019-05-18T05:43:57.703Z,71.82
2019-05-18T05:45:03.265Z,71.81
2019-05-18T05:46:08.522Z,71.84
2019-05-18T05:47:14.190Z,71.84
2019-05-18T05:48:19.149Z,71.81
2019-05-18T05:49:25.060Z,71.80
2019-05-18T05:50:36.142Z,71.79
2019-05-18T05:51:37.561Z,71.77
2019-05-18T05:52:42.599Z,71.73
2019-05-18T05:53:48.125Z,71.73
2019-05-18T05:54:53.478Z,71.74
2019-05-18T05:55:59.028Z,71.69
2019-05-18T05:57:04.170Z,71.63
2019-05-18T05:58:09.663Z,71.60
2019-05-18T05:59:14.629Z,71.55
2019-05-18T06:00:20.891Z,71.51
2019-05-18T06:01:26.457Z,71.50
2019-05-18T06:02:31.941Z,71.48
2019-05-18T06:03:37.034Z,71.50
2019-05-18T06:04:43.296Z,71.48
2019-05-18T06:05:48.734Z,71.52
2019-05-18T06:06:54.312Z,71.56
2019-05-18T06:07:59.476Z,71.58
2019-05-18T06:09:07.560Z,71.58
2019-05-18T06:10:13.322Z,71.55
2019-05-18T06:11:19.160Z,71.51
2019-05-18T06:12:24.279Z,71.55
2019-05-18T06:13:30.032Z,71.55
2019-05-18T06:14:35.121Z,71.58
2019-05-18T06:15:40.580Z,71.60
2019-05-18T06:16:45.586Z,71.64
2019-05-18T06:17:51.169Z,71.59
2019-05-18T06:18:56.125Z,71.59
2019-05-18T06:20:01.723Z,71.58
2019-05-18T06:21:06.853Z,71.62
2019-05-18T06:22:12.665Z,71.59
2019-05-18T06:23:18.009Z,71.59
2019-05-18T06:24:23.585Z,71.56
2019-05-18T06:25:34.069Z,71.53
2019-05-18T06:26:36.130Z,71.52
2019-05-18T06:27:41.313Z,71.49
2019-05-18T06:28:46.820Z,71.47
2019-05-18T06:29:51.764Z,71.45
2019-05-18T06:30:57.288Z,71.40
2019-05-18T06:32:02.294Z,71.40
2019-05-18T06:33:08.115Z,71.42
2019-05-18T06:34:13.174Z,71.38
2019-05-18T06:35:19.000Z,71.35
2019-05-18T06:36:24.074Z,71.34
2019-05-18T06:37:29.854Z,71.30
2019-05-18T06:38:35.391Z,71.26
2019-05-18T06:39:40.907Z,71.22
2019-05-18T06:40:45.935Z,71.15
2019-05-18T06:41:51.478Z,71.10
2019-05-18T06:42:56.529Z,71.09
2019-05-18T06:44:02.023Z,71.03
2019-05-18T06:45:07.354Z,70.97
2019-05-18T06:46:12.998Z,70.89
2019-05-18T06:47:18.017Z,70.74
2019-05-18T06:48:24.268Z,70.53
2019-05-18T06:49:29.298Z,70.36
2019-05-18T06:50:35.391Z,70.17
2019-05-18T06:51:40.335Z,69.95
2019-05-18T06:52:45.850Z,69.78
2019-05-18T06:53:50.931Z,69.60
2019-05-18T06:54:56.451Z,69.47
2019-05-18T06:56:03.003Z,69.37
2019-05-18T06:57:09.385Z,69.27
2019-05-18T06:58:16.111Z,69.19
2019-05-18T06:59:22.052Z,69.09
2019-05-18T07:00:27.467Z,68.99
2019-05-18T07:01:33.244Z,68.92
2019-05-18T07:02:38.262Z,68.82
2019-05-18T07:03:45.095Z,68.68
2019-05-18T07:04:50.204Z,68.50
2019-05-18T07:05:56.111Z,68.32
2019-05-18T07:07:01.198Z,68.20
2019-05-18T07:08:06.851Z,68.10
2019-05-18T07:09:14.256Z,67.96
2019-05-18T07:10:19.725Z,67.86
2019-05-18T07:11:24.831Z,67.72
2019-05-18T07:12:30.736Z,67.56
2019-05-18T07:13:35.742Z,67.42
2019-05-18T07:14:41.672Z,67.27
2019-05-18T07:15:46.694Z,67.17
2019-05-18T07:16:52.289Z,67.07
2019-05-18T07:17:57.353Z,66.93
2019-05-18T07:19:03.200Z,66.86
2019-05-18T07:20:08.610Z,66.68
2019-05-18T07:21:21.948Z,66.58
2019-05-18T07:22:21.469Z,66.47
2019-05-18T07:23:27.055Z,66.32
2019-05-18T07:24:32.325Z,66.19
2019-05-18T07:25:38.245Z,66.06
2019-05-18T07:26:43.858Z,65.96
2019-05-18T07:27:49.674Z,65.82
2019-05-18T07:28:55.307Z,65.69
2019-05-18T07:30:00.930Z,65.59
2019-05-18T07:31:07.283Z,65.52
2019-05-18T07:32:12.784Z,65.48
2019-05-18T07:33:18.218Z,65.40
2019-05-18T07:34:26.554Z,65.27
2019-05-18T07:35:30.875Z,65.12
2019-05-18T07:36:36.400Z,64.98
2019-05-18T07:37:41.760Z,64.90
2019-05-18T07:38:47.558Z,64.88
2019-05-18T07:39:52.688Z,64.67
2019-05-18T07:40:58.353Z,64.56
2019-05-18T07:42:03.292Z,64.56
2019-05-18T07:43:09.185Z,64.44
2019-05-18T07:44:14.184Z,64.30
2019-05-18T07:45:19.847Z,64.09
2019-05-18T07:46:24.904Z,63.94
2019-05-18T07:47:30.476Z,63.86
2019-05-18T07:48:35.781Z,63.73
2019-05-18T07:49:41.674Z,63.64
2019-05-18T07:50:46.755Z,63.54
2019-05-18T07:51:52.561Z,63.46
2019-05-18T07:52:57.601Z,63.38
2019-05-18T07:54:03.799Z,63.38
2019-05-18T07:55:10.121Z,63.32
2019-05-18T07:56:15.707Z,63.31
2019-05-18T07:57:21.012Z,63.33
2019-05-18T07:58:26.879Z,63.37
2019-05-18T07:59:31.940Z,63.42
2019-05-18T08:00:37.767Z,63.49
2019-05-18T08:01:42.875Z,63.56
2019-05-18T08:02:48.391Z,63.72
2019-05-18T08:03:53.557Z,63.86
2019-05-18T08:04:59.154Z,63.86
2019-05-18T08:06:04.232Z,63.71
2019-05-18T08:07:09.905Z,63.60
2019-05-18T08:08:14.884Z,63.57
2019-05-18T08:09:20.486Z,63.54
2019-05-18T08:10:36.599Z,63.48
2019-05-18T08:11:42.148Z,63.32
2019-05-18T08:12:47.072Z,63.18
2019-05-18T08:13:52.597Z,63.09
2019-05-18T08:14:58.264Z,63.08
2019-05-18T08:16:03.875Z,63.01
2019-05-18T08:17:09.018Z,62.87
2019-05-18T08:18:14.606Z,62.65
2019-05-18T08:19:19.639Z,62.57
2019-05-18T08:20:25.166Z,62.59
2019-05-18T08:21:30.285Z,62.61
2019-05-18T08:22:36.426Z,62.64
2019-05-18T08:23:41.725Z,62.62
2019-05-18T08:24:47.244Z,62.66
2019-05-18T08:25:52.291Z,62.70
2019-05-18T08:26:57.797Z,62.71
2019-05-18T08:28:02.735Z,62.77
2019-05-18T08:29:08.234Z,62.83
2019-05-18T08:30:13.748Z,62.68
2019-05-18T08:31:19.236Z,62.63
2019-05-18T08:32:24.155Z,62.60
2019-05-18T08:33:29.710Z,62.51
2019-05-18T08:34:34.920Z,62.43
2019-05-18T08:35:40.560Z,62.38
2019-05-18T08:36:45.461Z,62.37
2019-05-18T08:37:51.101Z,62.34
2019-05-18T08:38:56.086Z,62.31
2019-05-18T08:40:01.619Z,62.35
2019-05-18T08:41:06.680Z,62.39
2019-05-18T08:42:12.193Z,62.43
2019-05-18T08:43:17.145Z,62.26
2019-05-18T08:44:22.761Z,62.15
2019-05-18T08:45:27.780Z,62.12
2019-05-18T08:46:33.243Z,62.14
2019-05-18T08:47:38.585Z,62.16
2019-05-18T08:48:44.260Z,62.09
2019-05-18T08:49:49.286Z,62.04
2019-05-18T08:50:55.338Z,62.01
2019-05-18T08:52:08.216Z,62.00
2019-05-18T08:53:07.975Z,62.01
2019-05-18T08:54:13.275Z,61.98
2019-05-18T08:55:18.824Z,61.96
2019-05-18T08:56:24.065Z,61.90
2019-05-18T08:57:29.605Z,61.95
2019-05-18T08:58:34.936Z,61.94
2019-05-18T08:59:40.744Z,61.83
2019-05-18T09:00:45.709Z,61.78
2019-05-18T09:01:51.208Z,61.73
2019-05-18T09:02:56.454Z,61.62
2019-05-18T09:04:01.940Z,61.47
2019-05-18T09:05:07.831Z,61.33
2019-05-18T09:06:13.318Z,61.19
2019-05-18T09:07:18.594Z,61.14
2019-05-18T09:08:24.107Z,61.10
2019-05-18T09:09:29.080Z,60.93
2019-05-18T09:10:34.717Z,60.75
2019-05-18T09:11:40.233Z,60.65
2019-05-18T09:12:45.988Z,60.64
2019-05-18T09:13:50.988Z,60.56
2019-05-18T09:14:56.731Z,60.51
2019-05-18T09:16:01.743Z,60.45
2019-05-18T09:17:07.294Z,60.39
2019-05-18T09:18:12.338Z,60.26
2019-05-18T09:19:18.225Z,60.11
2019-05-18T09:20:23.205Z,59.98
2019-05-18T09:21:29.273Z,59.91
2019-05-18T09:22:34.276Z,59.89
2019-05-18T09:23:40.160Z,59.95
2019-05-18T09:24:45.544Z,60.02
2019-05-18T09:25:51.083Z,60.00
2019-05-18T09:26:56.288Z,59.88
2019-05-18T09:28:02.373Z,59.79
2019-05-18T09:29:07.637Z,59.79
2019-05-18T09:30:13.639Z,59.71
2019-05-18T09:31:18.646Z,59.68
2019-05-18T09:32:24.737Z,59.70
2019-05-18T09:33:29.745Z,59.72
2019-05-18T09:34:35.201Z,59.68
2019-05-18T09:35:40.224Z,59.68
2019-05-18T09:36:45.915Z,59.61
2019-05-18T09:37:50.908Z,59.62
2019-05-18T09:38:56.446Z,59.68
2019-05-18T09:40:01.710Z,59.77
2019-05-18T09:41:07.327Z,59.89
2019-05-18T09:42:12.257Z,60.00
2019-05-18T09:43:18.115Z,60.10
2019-05-18T09:44:23.422Z,60.18
2019-05-18T09:45:29.386Z,60.18
2019-05-18T09:46:34.976Z,60.08
2019-05-18T09:47:40.553Z,59.91
2019-05-18T09:48:45.511Z,59.72
2019-05-18T09:49:51.270Z,59.48
2019-05-18T09:50:56.286Z,59.23
2019-05-18T09:52:01.987Z,59.10
2019-05-18T09:53:07.222Z,58.97
2019-05-18T09:54:12.832Z,58.88
2019-05-18T09:55:18.065Z,58.84
2019-05-18T09:56:23.667Z,58.83
2019-05-18T09:57:28.632Z,58.82
2019-05-18T09:58:34.528Z,58.83
2019-05-18T09:59:39.517Z,58.77
2019-05-18T10:00:45.404Z,58.77
2019-05-18T10:01:50.833Z,58.70
2019-05-18T10:02:56.360Z,58.67
2019-05-18T10:04:01.662Z,58.68
2019-05-18T10:05:08.143Z,58.66
2019-05-18T10:06:13.211Z,58.68
2019-05-18T10:07:19.005Z,58.56
2019-05-18T10:08:24.215Z,58.51
2019-05-18T10:09:38.535Z,58.47
2019-05-18T10:10:36.522Z,58.54
2019-05-18T10:11:42.245Z,58.60
2019-05-18T10:12:47.369Z,58.62
2019-05-18T10:13:53.338Z,58.61
2019-05-18T10:14:58.412Z,58.58
2019-05-18T10:16:03.924Z,58.57
2019-05-18T10:17:08.946Z,58.56
2019-05-18T10:18:14.436Z,58.58
2019-05-18T10:19:19.429Z,58.60
2019-05-18T10:20:25.342Z,58.66
2019-05-18T10:21:30.439Z,58.77
2019-05-18T10:22:36.304Z,58.82
2019-05-18T10:23:41.410Z,58.81
2019-05-18T10:24:46.926Z,58.75
2019-05-18T10:25:51.872Z,58.72
2019-05-18T10:26:57.446Z,58.65
2019-05-18T10:28:02.478Z,58.61
2019-05-18T10:29:08.099Z,58.46
2019-05-18T10:30:14.843Z,58.25
2019-05-18T10:31:20.427Z,58.13
2019-05-18T10:32:25.799Z,57.96
2019-05-18T10:33:31.760Z,57.83
2019-05-18T10:34:36.715Z,57.74
2019-05-18T10:35:42.434Z,57.64
2019-05-18T10:36:47.727Z,57.55
2019-05-18T10:37:53.544Z,57.49
2019-05-18T10:38:58.521Z,57.44
2019-05-18T10:40:04.120Z,57.37
2019-05-18T10:41:09.114Z,57.29
2019-05-18T10:42:14.764Z,57.24
2019-05-18T10:43:19.767Z,57.15
2019-05-18T10:44:25.268Z,57.08
2019-05-18T10:45:30.325Z,57.06
2019-05-18T10:46:35.847Z,57.06
2019-05-18T10:47:41.102Z,57.10
2019-05-18T10:48:46.659Z,57.14
2019-05-18T10:49:52.013Z,57.08
2019-05-18T10:50:57.565Z,56.96
2019-05-18T10:52:02.840Z,56.73
2019-05-18T10:53:08.527Z,56.42
2019-05-18T10:54:13.750Z,56.09
2019-05-18T10:55:20.086Z,55.80
2019-05-18T10:56:25.116Z,55.52
2019-05-18T10:57:31.128Z,55.19
2019-05-18T10:58:36.061Z,54.83
2019-05-18T10:59:41.610Z,54.56
2019-05-18T11:00:46.742Z,54.33
2019-05-18T11:01:52.600Z,54.03
2019-05-18T11:02:57.682Z,53.75
2019-05-18T11:04:03.228Z,53.46
2019-05-18T11:05:08.784Z,53.24
2019-05-18T11:06:14.574Z,52.96
2019-05-18T11:07:20.027Z,52.80
2019-05-18T11:08:25.818Z,52.60
2019-05-18T11:09:31.005Z,52.41
2019-05-18T11:10:36.633Z,52.21
2019-05-18T11:11:42.003Z,52.18
2019-05-18T11:12:47.750Z,52.26
2019-05-18T11:13:52.954Z,52.32
2019-05-18T11:14:58.523Z,52.40
2019-05-18T11:16:03.769Z,52.48
2019-05-18T11:17:09.390Z,52.52
2019-05-18T11:18:14.481Z,52.46
2019-05-18T11:19:20.431Z,52.47
2019-05-18T11:20:25.529Z,52.39
2019-05-18T11:21:31.439Z,52.31
2019-05-18T11:22:36.589Z,52.09
2019-05-18T11:23:44.331Z,51.91
2019-05-18T11:24:49.082Z,51.83
2019-05-18T11:25:55.005Z,51.81
2019-05-18T11:26:59.970Z,51.84
2019-05-18T11:28:05.581Z,51.81
2019-05-18T11:29:10.702Z,51.77
2019-05-18T11:30:18.363Z,51.73
2019-05-18T11:31:23.461Z,51.61
2019-05-18T11:32:28.952Z,51.55
2019-05-18T11:33:34.167Z,51.51
2019-05-18T11:34:39.708Z,51.49
2019-05-18T11:35:44.989Z,51.41
2019-05-18T11:36:50.641Z,51.30
2019-05-18T11:37:55.993Z,51.23
2019-05-18T11:39:01.671Z,50.94
2019-05-18T11:40:07.395Z,50.70
2019-05-18T11:41:13.043Z,50.54
2019-05-18T11:42:18.367Z,50.40
2019-05-18T11:43:24.299Z,50.33
2019-05-18T11:44:29.276Z,50.32
2019-05-18T11:45:35.069Z,50.18
2019-05-18T11:46:40.222Z,49.97
2019-05-18T11:47:45.940Z,49.76
2019-05-18T11:48:51.170Z,49.59
2019-05-18T11:49:56.681Z,49.48
2019-05-18T11:51:01.926Z,49.40
2019-05-18T11:52:07.581Z,49.33
2019-05-18T11:53:12.735Z,49.22
2019-05-18T11:54:18.399Z,49.09
2019-05-18T11:55:23.944Z,48.98
2019-05-18T11:56:29.858Z,48.88
2019-05-18T11:57:35.286Z,48.78
2019-05-18T11:58:40.955Z,48.64
2019-05-18T11:59:45.884Z,48.52
2019-05-18T12:00:51.902Z,48.50
2019-05-18T12:01:56.967Z,48.46
2019-05-18T12:03:02.460Z,48.49
2019-05-18T12:04:07.478Z,48.61
2019-05-18T12:05:13.562Z,48.55
2019-05-18T12:06:18.619Z,48.57
2019-05-18T12:07:24.471Z,48.50
2019-05-18T12:08:29.424Z,48.53
2019-05-18T12:09:35.040Z,48.58
2019-05-18T12:10:40.042Z,48.58
2019-05-18T12:11:45.587Z,48.67
2019-05-18T12:12:50.744Z,48.88
2019-05-18T12:13:56.370Z,49.13
2019-05-18T12:15:01.323Z,49.35
2019-05-18T12:16:07.538Z,49.47
2019-05-18T12:17:12.737Z,49.48
2019-05-18T12:18:18.423Z,49.51
2019-05-18T12:19:23.539Z,49.64
2019-05-18T12:20:29.551Z,49.78
2019-05-18T12:21:34.805Z,49.78
2019-05-18T12:22:40.327Z,49.65
2019-05-18T12:23:45.437Z,49.44
2019-05-18T12:24:51.074Z,49.33
2019-05-18T12:25:56.039Z,49.37
2019-05-18T12:27:01.775Z,49.52
2019-05-18T12:28:07.347Z,49.65
2019-05-18T12:29:13.261Z,49.65
2019-05-18T12:30:19.145Z,49.59
2019-05-18T12:31:24.796Z,49.49
2019-05-18T12:32:30.103Z,49.38
2019-05-18T12:33:35.687Z,49.17
2019-05-18T12:34:40.655Z,48.91
2019-05-18T12:35:46.163Z,48.76
2019-05-18T12:36:51.568Z,48.79
2019-05-18T12:37:57.164Z,48.72
2019-05-18T12:39:03.417Z,48.54
2019-05-18T12:40:09.739Z,48.34
2019-05-18T12:41:16.222Z,48.21
2019-05-18T12:42:22.416Z,48.22
2019-05-18T12:43:27.506Z,48.25
2019-05-18T12:44:33.169Z,48.29
2019-05-18T12:45:38.176Z,48.30
2019-05-18T12:46:44.193Z,48.14
2019-05-18T12:47:49.411Z,47.94
2019-05-18T12:48:55.017Z,47.81
2019-05-18T12:50:00.009Z,47.71
2019-05-18T12:51:05.600Z,47.52
2019-05-18T12:52:11.414Z,47.25
2019-05-18T12:53:17.732Z,47.10
2019-05-18T12:54:30.984Z,47.04
2019-05-18T12:55:30.574Z,47.04
2019-05-18T12:56:35.583Z,46.91
2019-05-18T12:57:41.597Z,46.74
2019-05-18T12:58:46.657Z,46.56
2019-05-18T12:59:52.322Z,46.45
2019-05-18T13:00:57.430Z,46.36
2019-05-18T13:02:03.419Z,46.24
2019-05-18T13:03:08.406Z,46.08
2019-05-18T13:04:14.024Z,46.09
2019-05-18T13:05:19.660Z,46.11
2019-05-18T13:06:25.232Z,45.96
2019-05-18T13:07:30.270Z,45.76
2019-05-18T13:08:36.282Z,45.68
2019-05-18T13:09:41.685Z,45.79
2019-05-18T13:10:47.476Z,45.89
2019-05-18T13:11:52.802Z,45.87
2019-05-18T13:12:58.438Z,45.81
2019-05-18T13:14:03.537Z,45.89
2019-05-18T13:15:09.740Z,45.94
2019-05-18T13:16:14.687Z,46.04
2019-05-18T13:17:21.352Z,45.73
2019-05-18T13:18:26.661Z,45.37
2019-05-18T13:19:32.255Z,45.22
2019-05-18T13:20:38.306Z,45.31
2019-05-18T13:21:44.087Z,45.45
2019-05-18T13:22:49.465Z,45.49
2019-05-18T13:23:55.052Z,45.49
2019-05-18T13:25:00.700Z,45.29
2019-05-18T13:26:06.317Z,45.10
2019-05-18T13:27:11.275Z,44.98
2019-05-18T13:28:16.826Z,44.92
2019-05-18T13:29:22.186Z,44.87
2019-05-18T13:30:28.262Z,44.89
2019-05-18T13:31:33.969Z,44.95
2019-05-18T13:32:39.820Z,45.03
2019-05-18T13:33:45.114Z,45.03
2019-05-18T13:34:51.469Z,44.99
2019-05-18T13:35:56.471Z,44.94
2019-05-18T13:37:02.049Z,44.85
2019-05-18T13:38:07.160Z,44.83
2019-05-18T13:39:13.094Z,44.78
2019-05-18T13:40:18.710Z,44.66
2019-05-18T13:41:24.406Z,44.72
2019-05-18T13:42:29.447Z,44.76
2019-05-18T13:43:35.241Z,44.72
2019-05-18T13:44:40.600Z,44.77
2019-05-18T13:45:46.522Z,44.84
2019-05-18T13:46:51.640Z,44.86
2019-05-18T13:47:57.379Z,44.96
2019-05-18T13:49:02.311Z,44.87
2019-05-18T13:50:08.723Z,44.85
2019-05-18T13:51:13.823Z,44.68
2019-05-18T13:52:19.651Z,44.53
2019-05-18T13:53:25.387Z,44.50
2019-05-18T13:54:30.978Z,44.50
2019-05-18T13:55:36.019Z,44.36
2019-05-18T13:56:41.577Z,44.24
2019-05-18T13:57:46.615Z,44.14
2019-05-18T13:58:52.187Z,44.13
2019-05-18T13:59:57.546Z,44.17
2019-05-18T14:01:03.187Z,44.22
2019-05-18T14:02:08.708Z,44.26
2019-05-18T14:03:14.560Z,44.25
2019-05-18T14:04:19.563Z,44.26